Time;durP1;ratioP1;P1;durP2;ratioP2;P2;SDS_P1;SDS_P2;PMS_P1;PMS_P2;Temp;Humidity;BMP_temperature;BMP_pressure;BME280_temperature;BME280_humidity;BME280_pressure;Samples;Min_cycle;Max_cycle;Signal;HPM_P1;HPM_P2
2022/11/07 00:00:17;;;;;;;6.63;3.07;;;;;;;18.50;65.08;99187.53;6160710;23;20154;-89
2022/11/07 00:02:43;;;;;;;12.73;4.00;;;;;;;18.55;65.09;99188.03;6185066;23;20159;-89
2022/11/07 00:05:08;;;;;;;10.40;3.37;;;;;;;18.57;64.89;99185.22;6186591;23;20193;-88
2022/11/07 00:07:34;;;;;;;6.37;2.70;;;;;;;18.57;64.91;99194.03;6186336;23;20233;-89
2022/11/07 00:09:59;;;;;;;10.10;3.37;;;;;;;18.59;64.76;99189.44;6160710;23;20201;-89
2022/11/07 00:12:25;;;;;;;14.23;3.40;;;;;;;18.50;64.75;99192.84;6160189;23;20158;-88
2022/11/07 00:14:50;;;;;;;8.67;3.23;;;;;;;18.58;64.59;99193.03;6186204;23;20575;-89
2022/11/07 00:17:17;;;;;;;8.53;3.40;;;;;;;18.62;64.65;99199.81;6160102;23;20162;-89
2022/11/07 00:19:43;;;;;;;10.97;2.97;;;;;;;18.62;64.15;99205.09;6186145;23;20562;-89
2022/11/07 00:22:08;;;;;;;10.60;2.57;;;;;;;18.31;65.35;99200.66;6185273;23;20158;-89
2022/11/07 00:24:33;;;;;;;6.13;3.53;;;;;;;18.38;65.54;99204.47;6184911;23;20562;-89
2022/11/07 00:26:59;;;;;;;10.33;3.93;;;;;;;18.39;65.27;99199.03;6160745;23;20169;-89
2022/11/07 00:29:24;;;;;;;9.40;3.47;;;;;;;18.37;64.97;99200.13;6185330;23;20645;-89
2022/11/07 00:31:50;;;;;;;12.43;3.77;;;;;;;18.45;64.74;99202.97;6186418;23;20585;-89
2022/11/07 00:34:15;;;;;;;8.47;3.17;;;;;;;18.47;64.63;99202.88;6186116;23;20473;-89
2022/11/07 00:36:41;;;;;;;6.00;2.97;;;;;;;18.58;64.13;99208.97;6186057;23;20161;-88
2022/11/07 00:39:07;;;;;;;13.47;3.77;;;;;;;18.57;64.04;99211.78;6159890;23;20151;-88
2022/11/07 00:41:33;;;;;;;17.67;2.97;;;;;;;18.60;63.71;99208.88;6186224;23;20527;-89
2022/11/07 00:43:58;;;;;;;11.20;3.43;;;;;;;18.67;63.42;99202.91;6186254;23;20170;-89
2022/11/07 00:46:24;;;;;;;8.73;3.27;;;;;;;18.66;63.44;99203.88;6159827;23;20157;-89
2022/11/07 00:48:50;;;;;;;10.97;3.57;;;;;;;18.53;63.89;99202.38;6159600;23;20178;-88
2022/11/07 00:51:16;;;;;;;9.00;3.00;;;;;;;18.48;64.18;99199.25;6185828;23;20504;-89
2022/11/07 00:53:42;;;;;;;13.87;3.80;;;;;;;18.56;63.83;99195.00;6184558;23;20169;-89
2022/11/07 00:56:10;;;;;;;10.33;3.47;;;;;;;18.60;63.73;99201.75;6185516;23;20158;-89
2022/11/07 00:58:36;;;;;;;8.70;4.13;;;;;;;18.64;63.60;99197.84;6159688;23;20150;-90
2022/11/07 01:01:14;;;;;;;12.63;3.13;;;;;;;18.63;63.53;99206.78;6160031;23;20165;-89
2022/11/07 01:06:27;;;;;;;7.63;3.53;;;;;;;18.56;63.79;99205.63;6186021;23;20157;-89
2022/11/07 01:08:54;;;;;;;17.27;4.30;;;;;;;18.62;63.03;99199.81;6159653;23;20175;-90
2022/11/07 01:11:20;;;;;;;6.60;2.27;;;;;;;18.28;63.94;99196.44;6159626;23;20161;-88
2022/11/07 01:13:45;;;;;;;11.83;3.80;;;;;;;18.38;63.95;99205.31;6185594;23;20150;-89
2022/11/07 01:16:11;;;;;;;7.90;3.00;;;;;;;18.45;63.41;99205.63;6186303;23;20146;-89
2022/11/07 01:18:37;;;;;;;7.23;3.00;;;;;;;18.40;63.83;99194.56;6159621;23;20637;-89
2022/11/07 01:21:07;;;;;;;16.33;4.00;;;;;;;18.27;63.83;99196.56;6185830;23;20152;-89
2022/11/07 01:23:33;;;;;;;9.53;4.27;;;;;;;18.34;63.88;99195.09;6159477;23;20162;-89
2022/11/07 01:26:07;;;;;;;11.13;3.37;;;;;;;18.42;63.36;99197.97;6185818;23;20146;-89
2022/11/07 01:28:34;;;;;;;11.63;3.30;;;;;;;18.37;63.50;99203.63;6185457;23;20198;-90
2022/11/07 01:31:02;;;;;;;9.20;3.80;;;;;;;18.41;63.13;99206.88;6186087;23;20139;-89
2022/11/07 01:33:28;;;;;;;9.90;3.73;;;;;;;18.40;63.52;99206.03;6159382;23;20232;-88
2022/11/07 01:35:54;;;;;;;9.97;3.57;;;;;;;18.40;63.07;99206.03;6185501;23;20238;-88
2022/11/07 01:38:19;;;;;;;5.77;2.80;;;;;;;18.48;62.80;99200.09;6159448;23;20151;-89
2022/11/07 01:44:03;;;;;;;6.57;3.57;;;;;;;18.43;62.93;99197.81;6185802;23;20465;-89
2022/11/07 01:46:33;;;;;;;7.00;3.90;;;;;;;18.41;62.85;99196.25;6160354;23;20150;-88
2022/11/07 01:49:18;;;;;;;5.97;3.57;;;;;;;18.40;62.67;99206.03;6160239;23;20228;-88
2022/11/07 01:52:18;;;;;;;12.73;4.00;;;;;;;18.48;62.70;99201.91;6185578;23;20173;-89
2022/11/07 01:54:46;;;;;;;14.93;3.70;;;;;;;18.35;62.93;99202.91;6185723;23;20139;-88
2022/11/07 01:57:18;;;;;;;9.10;4.37;;;;;;;18.40;62.64;99207.84;6185287;23;20574;-89
2022/11/07 01:59:45;;;;;;;13.03;4.27;;;;;;;18.41;62.36;99206.88;6158986;23;20566;-89
2022/11/07 02:02:10;;;;;;;13.87;4.10;;;;;;;18.34;62.41;99213.66;6185219;23;20162;-88
2022/11/07 02:04:36;;;;;;;5.27;3.10;;;;;;;18.30;62.82;99217.53;6185288;23;20151;-87
2022/11/07 02:07:10;;;;;;;10.23;4.13;;;;;;;18.36;62.52;99217.03;6185252;23;20553;-88
2022/11/07 02:09:35;;;;;;;9.43;3.50;;;;;;;18.52;62.30;99216.63;6160248;23;20211;-89
2022/11/07 02:12:02;;;;;;;10.23;3.63;;;;;;;18.49;62.05;99220.38;6185103;23;20562;-89
2022/11/07 02:14:28;;;;;;;7.87;3.40;;;;;;;18.41;62.20;99218.34;6184011;23;20241;-89
2022/11/07 02:16:54;;;;;;;9.80;3.70;;;;;;;18.47;61.85;99217.03;6159513;23;20185;-89
2022/11/07 02:19:33;;;;;;;6.53;3.83;;;;;;;18.42;62.33;99229.81;6185179;23;20146;-88
2022/11/07 02:22:20;;;;;;;12.13;3.97;;;;;;;18.51;61.95;99228.22;6159257;23;20484;-88
2022/11/07 02:24:50;;;;;;;12.33;3.97;;;;;;;18.46;62.04;99225.91;6160226;23;20241;-88
2022/11/07 02:27:18;;;;;;;8.30;3.70;;;;;;;18.51;61.88;99229.06;6159118;23;20236;-89
2022/11/07 02:29:49;;;;;;;5.33;3.30;;;;;;;18.40;62.03;99229.06;6185200;23;20193;-89
2022/11/07 02:32:14;;;;;;;9.87;3.17;;;;;;;18.32;62.24;99224.41;6185482;23;20205;-88
2022/11/07 02:34:40;;;;;;;10.07;4.30;;;;;;;18.36;62.10;99232.97;6159085;23;20241;-88
2022/11/07 02:37:31;;;;;;;11.70;4.43;;;;;;;18.40;61.91;99235.22;6185042;23;20151;-89
2022/11/07 02:40:05;;;;;;;7.27;3.50;;;;;;;18.29;62.26;99232.59;6159132;23;20146;-88
2022/11/07 02:42:42;;;;;;;16.43;3.83;;;;;;;18.42;61.81;99221.84;6185439;23;20143;-89
2022/11/07 02:45:32;;;;;;;6.27;2.87;;;;;;;18.45;61.54;99224.22;6185102;23;20130;-88
2022/11/07 02:47:57;;;;;;;7.77;3.67;;;;;;;18.46;61.31;99231.22;6160437;23;20150;-89
2022/11/07 02:50:23;;;;;;;6.53;3.07;;;;;;;18.46;61.18;99227.72;6184941;23;20281;-89
2022/11/07 02:52:48;;;;;;;10.17;2.93;;;;;;;18.52;61.39;99236.06;6185016;23;20246;-88
2022/11/07 02:55:14;;;;;;;8.47;3.30;;;;;;;18.55;61.08;99230.50;6185061;23;20147;-89
2022/11/07 02:57:40;;;;;;;17.53;3.57;;;;;;;18.44;61.01;99233.16;6159042;23;20194;-89
2022/11/07 03:00:07;;;;;;;9.43;3.13;;;;;;;18.54;60.65;99233.25;6159256;23;20184;-88
2022/11/07 03:02:32;;;;;;;8.57;3.10;;;;;;;18.39;61.25;99240.66;6185209;23;20174;-89
2022/11/07 03:04:58;;;;;;;5.90;3.07;;;;;;;18.48;61.06;99245.22;6159012;23;20557;-89
2022/11/07 03:07:24;;;;;;;7.13;2.70;;;;;;;18.47;60.45;99238.25;6185580;23;20153;-89
2022/11/07 03:09:49;;;;;;;7.20;2.80;;;;;;;18.46;60.54;99247.16;6158886;23;20561;-89
2022/11/07 03:12:15;;;;;;;10.87;3.30;;;;;;;18.37;60.75;99254.06;6185873;23;20226;-89
2022/11/07 03:14:41;;;;;;;5.20;2.60;;;;;;;18.49;60.45;99246.94;6186803;23;20163;-89
2022/11/07 03:17:06;;;;;;;7.77;2.80;;;;;;;18.53;60.25;99250.16;6186782;23;20197;-89
2022/11/07 03:19:31;;;;;;;6.07;2.90;;;;;;;18.59;60.11;99257.63;6187060;23;20551;-89
2022/11/07 03:21:57;;;;;;;5.83;2.60;;;;;;;18.48;60.04;99253.19;6160743;23;20491;-89
2022/11/07 03:24:22;;;;;;;12.53;3.37;;;;;;;18.50;59.98;99259.22;6186707;23;20570;-89
2022/11/07 03:26:48;;;;;;;10.80;3.20;;;;;;;18.57;60.03;99259.56;6186688;23;20150;-89
2022/11/07 03:29:13;;;;;;;11.87;2.90;;;;;;;18.58;59.49;99256.75;6186335;23;20271;-88
2022/11/07 03:31:39;;;;;;;8.30;2.60;;;;;;;18.47;59.79;99259.50;6186669;23;20482;-89
2022/11/07 03:34:04;;;;;;;7.10;2.80;;;;;;;18.37;59.94;99269.13;6186899;23;20154;-89
2022/11/07 03:36:29;;;;;;;16.77;3.60;;;;;;;18.36;59.92;99257.69;6160608;23;20151;-89
2022/11/07 03:38:55;;;;;;;7.77;2.43;;;;;;;18.31;59.54;99264.34;6186496;23;20245;-89
2022/11/07 03:41:20;;;;;;;4.57;2.23;;;;;;;18.14;60.46;99262.22;6186531;23;20147;-88
2022/11/07 03:43:46;;;;;;;7.07;2.90;;;;;;;18.14;60.31;99252.44;6186535;23;20150;-88
2022/11/07 03:46:13;;;;;;;15.37;3.60;;;;;;;18.16;60.20;99255.81;6187074;23;20147;-88
2022/11/07 03:48:38;;;;;;;7.33;2.53;;;;;;;18.16;60.22;99263.75;6160418;23;20240;-88
2022/11/07 03:51:05;;;;;;;8.90;3.30;;;;;;;18.29;59.62;99256.50;6186381;23;20234;-88
2022/11/07 03:53:31;;;;;;;6.17;2.67;;;;;;;18.12;59.62;99264.16;6186420;23;20227;-87
2022/11/07 03:55:57;;;;;;;13.30;2.97;;;;;;;18.22;59.61;99265.09;6160661;23;20582;-89
2022/11/07 03:58:23;;;;;;;5.50;2.73;;;;;;;18.32;59.22;99264.19;6185145;23;20150;-89
2022/11/07 04:00:49;;;;;;;10.37;2.43;;;;;;;18.10;59.42;99260.78;6160309;23;20161;-89
2022/11/07 04:03:15;;;;;;;8.50;3.23;;;;;;;18.11;59.55;99259.81;6160301;23;20154;-88
2022/11/07 04:05:40;;;;;;;7.63;2.50;;;;;;;18.13;58.93;99260.53;6187295;23;20146;-88
2022/11/07 04:08:06;;;;;;;6.90;2.93;;;;;;;18.05;59.05;99258.53;6185394;23;20158;-88
2022/11/07 04:10:31;;;;;;;8.90;2.80;;;;;;;18.04;59.16;99269.22;6185270;23;20214;-89
2022/11/07 04:18:26;;;;;;;10.87;3.00;;;;;;;17.67;60.89;99258.94;6186266;23;20196;-87
2022/11/07 04:20:51;;;;;;;9.70;3.20;;;;;;;17.76;60.70;99258.22;6160040;23;20155;-88
2022/11/07 04:23:17;;;;;;;5.80;2.47;;;;;;;17.70;60.72;99261.34;6185672;23;20173;-88
2022/11/07 04:28:26;;;;;;;6.37;2.53;;;;;;;17.76;60.70;99260.00;6186233;23;20147;-88
2022/11/07 04:30:52;;;;;;;8.40;2.67;;;;;;;17.80;60.44;99254.34;6160367;23;20159;-89
2022/11/07 04:33:17;;;;;;;6.23;2.83;;;;;;;17.79;60.38;99243.88;6184787;23;20154;-88
2022/11/07 04:35:42;;;;;;;10.60;2.90;;;;;;;17.77;60.42;99253.72;6160002;23;20221;-88
2022/11/07 04:38:08;;;;;;;11.60;3.37;;;;;;;17.80;60.31;99248.19;6160993;23;20154;-88
2022/11/07 04:40:33;;;;;;;10.33;2.77;;;;;;;17.59;60.93;99255.19;6159931;23;20178;-87
2022/11/07 04:42:59;;;;;;;10.17;2.80;;;;;;;17.44;61.48;99251.94;6186155;23;20147;-88
2022/11/07 04:45:24;;;;;;;6.07;3.00;;;;;;;17.45;61.24;99256.25;6186297;23;20206;-88
2022/11/07 04:47:50;;;;;;;11.03;3.30;;;;;;;17.31;61.95;99261.81;6186826;23;20216;-87
2022/11/07 04:50:17;;;;;;;5.93;2.87;;;;;;;17.35;61.66;99257.94;6159795;23;20214;-88
2022/11/07 04:52:44;;;;;;;9.60;3.00;;;;;;;17.22;62.20;99257.19;6159715;23;20158;-88
2022/11/07 04:55:19;;;;;;;11.67;3.17;;;;;;;17.29;62.14;99266.38;6185804;23;20236;-88
2022/11/07 04:57:45;;;;;;;8.47;2.80;;;;;;;17.54;61.22;99260.03;6186116;23;20150;-88
2022/11/07 05:00:11;;;;;;;7.93;3.00;;;;;;;17.72;60.23;99267.34;6159816;23;20169;-88
2022/11/07 05:02:36;;;;;;;5.03;2.93;;;;;;;17.73;60.27;99268.22;6186027;23;20531;-88
2022/11/07 05:05:01;;;;;;;13.47;3.47;;;;;;;17.73;60.39;99268.22;6186363;23;20178;-89
2022/11/07 05:07:27;;;;;;;5.97;3.10;;;;;;;17.58;61.01;99278.19;6159673;23;20248;-88
2022/11/07 05:09:52;;;;;;;9.60;2.90;;;;;;;17.74;60.24;99283.16;6186232;23;20173;-88
2022/11/07 05:12:18;;;;;;;9.07;3.33;;;;;;;17.68;60.66;99283.63;6185446;23;20301;-89
2022/11/07 05:14:43;;;;;;;9.60;2.87;;;;;;;17.69;60.81;99288.81;6184820;23;20178;-89
2022/11/07 05:17:14;;;;;;;9.47;2.93;;;;;;;17.83;60.13;99286.88;6185682;23;20570;-89
2022/11/07 05:19:41;;;;;;;7.23;3.13;;;;;;;17.73;60.65;99300.03;6185090;23;20173;-89
2022/11/07 05:24:52;;;;;;;6.60;3.03;;;;;;;17.79;60.45;99303.03;6186319;23;20145;-89
2022/11/07 05:27:19;;;;;;;9.10;2.63;;;;;;;17.71;60.49;99310.72;6185634;23;20225;-89
2022/11/07 05:29:45;;;;;;;12.43;2.93;;;;;;;17.76;60.38;99308.59;6185369;23;20201;-89
2022/11/07 05:32:10;;;;;;;10.93;3.43;;;;;;;17.87;60.16;99313.03;6159491;23;20159;-89
2022/11/07 05:34:36;;;;;;;6.43;2.60;;;;;;;17.84;60.51;99312.44;6159363;23;20158;-89
2022/11/07 05:37:01;;;;;;;7.57;2.97;;;;;;;17.92;60.14;99315.31;6184598;23;20165;-89
2022/11/07 05:39:27;;;;;;;5.70;2.90;;;;;;;17.97;60.06;99318.44;6184203;23;20221;-89
2022/11/07 05:41:52;;;;;;;6.50;3.27;;;;;;;18.09;59.59;99322.75;6184563;23;20160;-89
2022/11/07 05:44:18;;;;;;;12.70;3.20;;;;;;;18.23;59.16;99331.31;6159836;23;20571;-89
2022/11/07 05:46:43;;;;;;;8.70;3.80;;;;;;;18.26;58.89;99339.00;6184107;23;20158;-89
2022/11/07 05:49:08;;;;;;;14.13;3.27;;;;;;;18.39;58.61;99341.53;6159537;23;20209;-89
2022/11/07 05:51:34;;;;;;;7.00;2.63;;;;;;;18.47;58.42;99347.09;6185941;23;20177;-89
2022/11/07 05:53:59;;;;;;;8.27;2.90;;;;;;;18.54;58.20;99344.75;6185634;23;20179;-89
2022/11/07 05:56:25;;;;;;;10.43;3.13;;;;;;;18.62;57.87;99348.47;6159306;23;20265;-89
2022/11/07 05:58:50;;;;;;;4.97;2.60;;;;;;;18.70;57.58;99354.00;6159264;23;20216;-89
2022/11/07 06:01:16;;;;;;;9.40;2.90;;;;;;;18.85;57.12;99360.69;6159681;23;20246;-89
2022/11/07 06:03:41;;;;;;;8.60;3.67;;;;;;;19.03;56.59;99364.47;6185269;23;20229;-89
2022/11/07 06:06:06;;;;;;;8.43;3.40;;;;;;;19.07;56.55;99375.72;6159050;23;20199;-89
2022/11/07 06:08:32;;;;;;;13.00;2.87;;;;;;;19.15;56.28;99372.41;6185803;23;20157;-89
2022/11/07 06:10:57;;;;;;;8.90;2.90;;;;;;;19.17;56.09;99381.09;6185510;23;20220;-90
2022/11/07 06:13:23;;;;;;;10.67;3.17;;;;;;;19.28;56.07;99381.03;6160204;23;20222;-89
2022/11/07 06:15:48;;;;;;;5.87;2.30;;;;;;;19.29;56.26;99391.53;6159568;23;20235;-88
2022/11/07 06:18:17;;;;;;;12.33;2.90;;;;;;;19.38;55.32;99392.59;6160480;23;20237;-89
2022/11/07 06:20:43;;;;;;;10.97;2.80;;;;;;;19.40;55.46;99388.84;6159533;23;20184;-89
2022/11/07 06:23:08;;;;;;;6.53;2.13;;;;;;;19.50;55.30;99394.22;6185125;23;20158;-89
2022/11/07 06:25:35;;;;;;;5.50;2.80;;;;;;;19.67;54.46;99401.63;6159121;23;20154;-89
2022/11/07 06:28:05;;;;;;;5.37;2.87;;;;;;;19.74;53.95;99405.41;6185465;23;20150;-89
2022/11/07 06:30:31;;;;;;;8.10;3.07;;;;;;;19.78;54.33;99414.84;6159028;23;20198;-89
2022/11/07 06:33:00;;;;;;;12.40;3.47;;;;;;;19.84;54.61;99418.75;6185169;23;20632;-89
2022/11/07 06:35:26;;;;;;;13.93;4.03;;;;;;;19.84;53.69;99413.44;6159138;23;20159;-89
2022/11/07 06:37:51;;;;;;;15.63;3.90;;;;;;;19.82;53.77;99410.94;6183858;23;20477;-89
2022/11/07 06:40:17;;;;;;;9.67;3.40;;;;;;;19.86;54.11;99423.00;6159108;23;20521;-89
2022/11/07 06:42:42;;;;;;;9.03;3.20;;;;;;;19.89;53.89;99425.38;6186059;23;20564;-88
2022/11/07 06:45:10;;;;;;;13.00;3.53;;;;;;;19.85;53.56;99421.31;6185014;23;20151;-88
2022/11/07 06:47:35;;;;;;;9.07;3.43;;;;;;;19.76;53.50;99419.44;6186724;23;20582;-88
2022/11/07 06:50:01;;;;;;;10.57;3.07;;;;;;;19.74;53.72;99428.50;6186911;23;20189;-89
2022/11/07 06:52:27;;;;;;;16.47;4.30;;;;;;;19.65;54.04;99430.16;6187307;23;20146;-88
2022/11/07 06:54:52;;;;;;;15.07;4.57;;;;;;;19.58;54.13;99435.13;6185758;23;20470;-88
2022/11/07 06:57:17;;;;;;;11.50;3.90;;;;;;;19.53;54.74;99440.00;6187492;23;20158;-88
2022/11/07 06:59:43;;;;;;;9.80;4.23;;;;;;;19.66;54.75;99441.63;6186914;23;20156;-89
2022/11/07 07:02:12;;;;;;;11.67;4.67;;;;;;;19.71;54.22;99434.09;6186831;23;20150;-89
2022/11/07 07:04:38;;;;;;;11.83;3.60;;;;;;;19.50;53.17;99442.06;6157686;23;20601;-89
2022/11/07 07:07:03;;;;;;;12.80;4.20;;;;;;;19.47;53.57;99442.34;6186600;23;20640;-89
2022/11/07 07:09:29;;;;;;;9.17;3.67;;;;;;;19.51;53.80;99435.78;6186531;23;20182;-89
2022/11/07 07:11:54;;;;;;;10.60;3.90;;;;;;;19.52;53.00;99426.84;6186474;23;20212;-89
2022/11/07 07:14:20;;;;;;;11.37;3.90;;;;;;;19.66;53.04;99439.81;6160272;23;20158;-89
2022/11/07 07:16:45;;;;;;;8.77;3.77;;;;;;;19.74;51.87;99437.34;6186340;23;20154;-89
2022/11/07 07:19:11;;;;;;;9.73;3.83;;;;;;;19.83;52.15;99431.25;6160530;23;20197;-88
2022/11/07 07:21:37;;;;;;;7.40;4.17;;;;;;;20.01;51.70;99427.00;6187001;23;20281;-89
2022/11/07 07:24:03;;;;;;;10.37;4.17;;;;;;;19.97;51.24;99428.22;6160219;23;20566;-89
2022/11/07 07:26:28;;;;;;;5.97;3.10;;;;;;;20.00;50.16;99427.13;6185130;23;20221;-89
2022/11/07 07:28:54;;;;;;;9.90;3.77;;;;;;;19.86;50.33;99438.13;6186671;23;20182;-89
2022/11/07 07:31:23;;;;;;;9.47;2.87;;;;;;;19.66;49.76;99430.97;6186211;23;20213;-88
2022/11/07 07:33:49;;;;;;;6.53;3.23;;;;;;;19.87;49.64;99435.31;6160264;23;20157;-89
2022/11/07 07:36:15;;;;;;;5.87;3.17;;;;;;;20.02;49.03;99435.84;6186338;23;20150;-89
2022/11/07 07:38:42;;;;;;;7.70;3.00;;;;;;;20.04;49.32;99432.06;6160383;23;20153;-89
2022/11/07 07:41:07;;;;;;;10.03;2.63;;;;;;;20.09;48.70;99429.00;6185129;23;20150;-89
2022/11/07 07:43:33;;;;;;;7.30;3.23;;;;;;;20.30;48.22;99432.47;6186524;23;20161;-89
2022/11/07 07:45:59;;;;;;;6.80;2.70;;;;;;;20.33;47.58;99439.34;6160762;23;20154;-89
2022/11/07 07:48:26;;;;;;;9.03;3.27;;;;;;;20.38;47.55;99423.81;6160623;23;20185;-89
2022/11/07 07:50:51;;;;;;;9.10;2.97;;;;;;;20.11;46.97;99435.00;6160577;23;20190;-89
2022/11/07 07:53:17;;;;;;;11.07;3.07;;;;;;;20.35;47.39;99430.25;6186380;23;20181;-89
2022/11/07 07:55:43;;;;;;;7.70;2.73;;;;;;;20.48;46.98;99432.66;6157866;23;20644;-89
2022/11/07 07:58:09;;;;;;;7.23;2.73;;;;;;;20.45;46.55;99436.44;6185939;23;20639;-90
2022/11/07 08:00:35;;;;;;;4.43;2.37;;;;;;;20.47;46.42;99433.63;6160071;23;20162;-88
2022/11/07 08:03:06;;;;;;;11.30;3.23;;;;;;;20.53;46.48;99427.78;6186086;23;20151;-89
2022/11/07 08:05:31;;;;;;;6.63;3.60;;;;;;;20.71;45.99;99436.78;6158759;23;20225;-89
2022/11/07 08:07:57;;;;;;;7.70;2.87;;;;;;;20.80;45.62;99430.66;6185267;23;20204;-90
2022/11/07 08:10:22;;;;;;;9.60;3.80;;;;;;;20.78;45.74;99432.59;6159858;23;20179;-89
2022/11/07 08:12:49;;;;;;;9.83;4.00;;;;;;;20.83;45.98;99431.19;6159845;23;20200;-89
2022/11/07 08:15:16;;;;;;;8.13;2.90;;;;;;;20.95;45.25;99434.59;6185935;23;20147;-89
2022/11/07 08:17:42;;;;;;;8.00;3.70;;;;;;;20.91;45.47;99432.34;6160356;23;20158;-91
2022/11/07 08:20:09;;;;;;;10.20;3.50;;;;;;;20.89;45.32;99445.78;6160460;23;20237;-89
2022/11/07 08:22:36;;;;;;;13.30;3.60;;;;;;;20.87;45.04;99439.75;6159597;23;20155;-90
2022/11/07 08:25:02;;;;;;;7.87;3.23;;;;;;;20.96;45.28;99441.63;6159761;23;20151;-88
2022/11/07 08:27:27;;;;;;;7.67;3.40;;;;;;;21.02;44.78;99440.19;6160189;23;20229;-89
2022/11/07 08:29:53;;;;;;;6.60;3.30;;;;;;;21.11;44.64;99439.41;6185958;23;20276;-88
2022/11/07 08:32:18;;;;;;;7.30;3.33;;;;;;;20.83;44.57;99441.03;6159705;23;20487;-89
2022/11/07 08:34:44;;;;;;;8.17;3.23;;;;;;;20.56;45.22;99432.84;6184330;23;20212;-89
2022/11/07 08:37:09;;;;;;;7.67;3.13;;;;;;;20.64;45.40;99438.31;6185932;23;20226;-87
2022/11/07 08:39:35;;;;;;;8.40;3.57;;;;;;;20.91;45.22;99437.69;6159645;23;20184;-88
2022/11/07 08:42:00;;;;;;;9.07;3.30;;;;;;;20.91;44.92;99438.50;6185686;23;20154;-89
2022/11/07 08:44:26;;;;;;;11.47;4.30;;;;;;;20.92;44.90;99445.53;6159835;23;20194;-90
2022/11/07 08:46:51;;;;;;;6.87;3.07;;;;;;;20.94;44.96;99443.56;6185606;23;20157;-89
2022/11/07 08:49:17;;;;;;;9.33;3.17;;;;;;;21.18;44.37;99440.53;6185909;23;20174;-89
2022/11/07 08:51:42;;;;;;;6.70;3.37;;;;;;;21.13;44.29;99432.09;6159976;23;20585;-89
2022/11/07 08:54:08;;;;;;;9.30;3.87;;;;;;;21.37;44.42;99436.03;6159982;23;20554;-89
2022/11/07 08:56:33;;;;;;;7.00;3.50;;;;;;;21.62;43.85;99425.78;6159725;23;20180;-90
2022/11/07 08:58:59;;;;;;;12.40;3.70;;;;;;;21.57;43.65;99430.66;6185928;23;20142;-89
2022/11/07 09:01:25;;;;;;;4.90;2.80;;;;;;;21.55;43.68;99441.50;6185706;23;20185;-89
2022/11/07 09:03:50;;;;;;;8.10;3.60;;;;;;;21.54;43.64;99437.13;6185465;23;20146;-90
2022/11/07 09:06:16;;;;;;;13.73;4.90;;;;;;;21.69;43.52;99434.88;6185542;23;20150;-89
2022/11/07 09:08:42;;;;;;;9.53;4.13;;;;;;;21.83;43.29;99434.41;6185019;23;20158;-90
2022/11/07 09:11:08;;;;;;;6.53;3.57;;;;;;;21.85;43.20;99435.13;6185766;23;20161;-89
2022/11/07 09:13:34;;;;;;;8.50;3.60;;;;;;;21.90;42.94;99435.56;6159432;23;20169;-89
2022/11/07 09:16:01;;;;;;;10.63;3.13;;;;;;;21.99;42.88;99434.66;6185472;23;20170;-89
2022/11/07 09:18:27;;;;;;;13.33;4.43;;;;;;;21.95;42.75;99430.63;6185326;23;20154;-89
2022/11/07 09:20:53;;;;;;;17.47;5.90;;;;;;;22.02;42.77;99435.22;6159386;23;20161;-89
2022/11/07 09:23:18;;;;;;;17.67;4.93;;;;;;;21.79;42.73;99435.69;6159294;23;20159;-89
2022/11/07 09:25:44;;;;;;;20.37;5.00;;;;;;;21.81;43.08;99434.56;6185324;23;20154;-89
2022/11/07 09:28:10;;;;;;;14.83;5.37;;;;;;;21.95;42.95;99435.97;6185561;23;20150;-89
2022/11/07 09:30:35;;;;;;;12.33;5.77;;;;;;;21.91;43.26;99439.91;6184947;23;20578;-90
2022/11/07 09:33:01;;;;;;;10.73;4.73;;;;;;;21.74;43.33;99438.78;6185707;23;20208;-89
2022/11/07 09:35:27;;;;;;;25.83;7.90;;;;;;;21.87;43.82;99439.38;6159149;23;20216;-89
2022/11/07 09:37:52;;;;;;;12.43;5.40;;;;;;;22.03;43.47;99436.94;6184395;23;20169;-89
2022/11/07 09:40:42;;;;;;;16.80;6.57;;;;;;;22.04;43.56;99433.25;6159224;23;20616;-90
2022/11/07 09:43:44;;;;;;;17.13;6.60;;;;;;;22.13;43.03;99431.53;6159469;23;20157;-90
2022/11/07 09:46:18;;;;;;;11.40;4.57;;;;;;;22.27;42.61;99428.41;6136245;23;20158;-89
2022/11/07 09:48:49;;;;;;;14.67;4.97;;;;;;;22.30;42.42;99430.75;6159234;23;20198;-89
2022/11/07 09:51:32;;;;;;;10.17;4.70;;;;;;;22.09;42.58;99430.13;6159965;23;20581;-89
2022/11/07 09:54:05;;;;;;;8.27;4.73;;;;;;;21.66;42.97;99432.50;6159501;23;20152;-89
2022/11/07 09:56:32;;;;;;;10.43;4.80;;;;;;;21.83;43.91;99434.41;6184895;23;20568;-89
2022/11/07 09:59:05;;;;;;;12.83;5.30;;;;;;;22.02;43.20;99437.91;6184796;23;20566;-90
2022/11/07 10:01:31;;;;;;;13.03;5.13;;;;;;;22.00;42.60;99433.69;6185333;23;20138;-89
2022/11/07 10:03:58;;;;;;;9.67;4.97;;;;;;;22.00;42.78;99433.69;6158895;23;20604;-89
2022/11/07 10:06:45;;;;;;;15.53;6.00;;;;;;;22.00;43.33;99428.34;6185137;23;20150;-89
2022/11/07 10:09:21;;;;;;;15.67;7.20;;;;;;;22.02;42.61;99429.06;6184993;23;20264;-90
2022/11/07 10:12:17;;;;;;;11.83;5.60;;;;;;;22.07;43.07;99429.44;6185299;23;20134;-90
2022/11/07 10:14:58;;;;;;;15.30;6.90;;;;;;;21.97;43.46;99420.63;6184734;23;20150;-89
2022/11/07 10:17:42;;;;;;;19.60;7.27;;;;;;;21.99;43.21;99411.50;6185138;23;20146;-89
2022/11/07 10:20:45;;;;;;;18.80;6.57;;;;;;;22.12;42.88;99419.16;6159152;23;20166;-89
2022/11/07 10:23:21;;;;;;;13.70;6.80;;;;;;;22.19;42.39;99406.09;6187033;23;20142;-90
2022/11/07 10:26:09;;;;;;;18.33;6.13;;;;;;;21.96;43.20;99400.25;6187467;23;20138;-90
2022/11/07 10:28:45;;;;;;;11.50;6.03;;;;;;;21.91;43.31;99408.72;6186878;23;20138;-91
2022/11/07 10:31:13;;;;;;;19.67;8.37;;;;;;;22.10;42.61;99401.63;6161249;23;20161;-90
2022/11/07 10:33:52;;;;;;;13.70;6.47;;;;;;;22.29;42.34;99397.03;6161557;23;20489;-90
2022/11/07 10:36:29;;;;;;;15.73;8.07;;;;;;;22.24;43.27;99393.97;6187095;23;20142;-89
2022/11/07 10:38:55;;;;;;;11.80;6.23;;;;;;;22.43;42.38;99396.53;6186934;23;20142;-91
2022/11/07 10:41:22;;;;;;;18.10;6.33;;;;;;;22.42;42.72;99396.69;6187012;23;20146;-90
2022/11/07 10:44:02;;;;;;;14.43;6.87;;;;;;;22.48;41.94;99396.09;6186835;23;20151;-89
2022/11/07 10:46:37;;;;;;;17.27;6.27;;;;;;;22.57;41.90;99385.34;6186967;23;20135;-90
2022/11/07 10:49:19;;;;;;;9.53;4.87;;;;;;;22.46;41.69;99388.22;6187138;23;20541;-89
2022/11/07 10:51:45;;;;;;;12.83;6.20;;;;;;;22.44;41.65;99384.88;6160913;23;20527;-89
2022/11/07 10:54:25;;;;;;;13.73;5.73;;;;;;;22.41;41.92;99390.50;6186887;23;20533;-90
2022/11/07 10:56:54;;;;;;;14.10;6.40;;;;;;;22.47;42.02;99389.06;6187183;23;20134;-90
2022/11/07 10:59:28;;;;;;;18.20;6.43;;;;;;;22.53;42.01;99381.31;6186633;23;20147;-90
2022/11/07 11:01:57;;;;;;;13.17;6.10;;;;;;;22.54;41.65;99379.44;6187398;23;20157;-89
2022/11/07 11:04:26;;;;;;;19.57;6.53;;;;;;;22.40;41.67;99383.50;6186734;23;20225;-89
2022/11/07 11:07:10;;;;;;;20.43;6.57;;;;;;;22.46;41.41;99388.22;6186579;23;20288;-89
2022/11/07 11:09:36;;;;;;;12.97;6.10;;;;;;;22.52;41.51;99382.28;6161032;23;20178;-89
2022/11/07 11:12:11;;;;;;;11.53;5.87;;;;;;;22.37;41.94;99378.44;6186702;23;20150;-89
2022/11/07 11:14:36;;;;;;;13.07;5.97;;;;;;;22.41;41.97;99381.63;6186534;23;20546;-89
2022/11/07 11:17:02;;;;;;;12.90;6.80;;;;;;;22.46;42.12;99380.22;6184511;23;20165;-90
2022/11/07 11:19:51;;;;;;;12.40;5.77;;;;;;;22.75;41.29;99373.84;6160550;23;20151;-89
2022/11/07 11:22:20;;;;;;;10.30;5.57;;;;;;;22.94;40.67;99363.03;6187436;23;20138;-89
2022/11/07 11:24:56;;;;;;;12.53;5.83;;;;;;;22.99;40.49;99363.41;6160656;23;20233;-89
2022/11/07 11:27:25;;;;;;;14.43;5.60;;;;;;;23.17;40.12;99357.06;6186973;23;20162;-90
2022/11/07 11:30:00;;;;;;;10.37;5.60;;;;;;;23.01;39.92;99356.06;6160507;23;20217;-89
2022/11/07 11:32:37;;;;;;;10.90;6.30;;;;;;;23.09;40.23;99358.81;6186634;23;20130;-89
2022/11/07 11:35:24;;;;;;;10.93;6.60;;;;;;;23.01;40.43;99356.06;6187057;23;20157;-89
2022/11/07 11:37:57;;;;;;;12.83;6.23;;;;;;;22.81;40.62;99349.19;6160960;23;20491;-89
2022/11/07 11:40:23;;;;;;;12.47;6.10;;;;;;;22.97;40.71;99352.03;6160934;23;20474;-90
2022/11/07 11:42:58;;;;;;;12.53;4.70;;;;;;;23.12;40.79;99342.47;6161019;23;20164;-89
2022/11/07 11:46:03;;;;;;;10.37;5.37;;;;;;;23.33;39.50;99342.97;6161774;23;20168;-89
2022/11/07 11:48:38;;;;;;;10.23;5.90;;;;;;;23.49;39.43;99339.59;6090285;23;20215;-89
2022/11/07 11:51:47;;;;;;;12.23;5.27;;;;;;;23.68;39.20;99334.88;6161367;23;20162;-89